Terminal Aerodrome Forecast
Issued by NWS

Home | Current Version | Previous Version | Text Only | Print | Product List | Glossary On
Versions: 1 2 3 4 5 6 7 8 9 10 11 12 13 14 15 16
600
FTUS42 TJSJ 280521
TAFJBQ
TAF
TJBQ 280521Z 2806/2906 10006KT P6SM FEW030
     FM281400 08013KT P6SM SCT025
     FM281800 08012KT P6SM VCSH SCT025
     FM282300 09008KT P6SM SCT025
      AMD NOT SKED TIL 281100=

USA.gov is the U.S. government's official web portal to all federal, state and local government web resources and services.